sensor_id;sensor_type;location;lat;lon;timestamp;P1;durP1;ratioP1;P2;durP2;ratioP2
10333;SDS011;5212;47.892;16.406;2022-07-06T00:02:03;5.80;;;5.30;;
10333;SDS011;5212;47.892;16.406;2022-07-06T00:04:30;5.63;;;5.23;;
10333;SDS011;5212;47.892;16.406;2022-07-06T00:06:58;5.13;;;4.73;;
10333;SDS011;5212;47.892;16.406;2022-07-06T00:09:25;5.53;;;5.10;;
10333;SDS011;5212;47.892;16.406;2022-07-06T00:11:53;5.03;;;4.57;;
10333;SDS011;5212;47.892;16.406;2022-07-06T00:14:20;5.23;;;4.77;;
10333;SDS011;5212;47.892;16.406;2022-07-06T00:16:48;6.57;;;6.00;;
10333;SDS011;5212;47.892;16.406;2022-07-06T00:19:16;6.37;;;5.87;;
10333;SDS011;5212;47.892;16.406;2022-07-06T00:21:43;6.20;;;5.70;;
10333;SDS011;5212;47.892;16.406;2022-07-06T00:24:11;5.27;;;4.87;;
10333;SDS011;5212;47.892;16.406;2022-07-06T00:26:38;6.77;;;6.17;;
10333;SDS011;5212;47.892;16.406;2022-07-06T00:29:05;7.40;;;6.80;;
10333;SDS011;5212;47.892;16.406;2022-07-06T00:31:33;8.17;;;7.43;;
10333;SDS011;5212;47.892;16.406;2022-07-06T00:34:02;7.60;;;7.00;;
10333;SDS011;5212;47.892;16.406;2022-07-06T00:36:29;8.27;;;7.57;;
10333;SDS011;5212;47.892;16.406;2022-07-06T00:38:56;7.33;;;6.63;;
10333;SDS011;5212;47.892;16.406;2022-07-06T00:41:24;7.97;;;7.20;;
10333;SDS011;5212;47.892;16.406;2022-07-06T00:43:51;7.60;;;6.90;;
10333;SDS011;5212;47.892;16.406;2022-07-06T00:46:21;6.57;;;6.07;;
10333;SDS011;5212;47.892;16.406;2022-07-06T00:48:50;7.23;;;6.63;;
10333;SDS011;5212;47.892;16.406;2022-07-06T00:51:19;7.70;;;6.90;;
10333;SDS011;5212;47.892;16.406;2022-07-06T00:53:46;7.57;;;6.97;;
10333;SDS011;5212;47.892;16.406;2022-07-06T00:56:14;7.50;;;6.80;;
10333;SDS011;5212;47.892;16.406;2022-07-06T00:58:41;7.07;;;6.37;;
10333;SDS011;5212;47.892;16.406;2022-07-06T01:01:09;7.40;;;6.80;;
10333;SDS011;5212;47.892;16.406;2022-07-06T01:03:37;7.00;;;6.40;;
10333;SDS011;5212;47.892;16.406;2022-07-06T01:06:04;8.03;;;7.33;;
10333;SDS011;5212;47.892;16.406;2022-07-06T01:08:33;7.80;;;6.93;;
10333;SDS011;5212;47.892;16.406;2022-07-06T01:11:00;8.20;;;7.40;;
10333;SDS011;5212;47.892;16.406;2022-07-06T01:13:27;7.57;;;6.97;;
10333;SDS011;5212;47.892;16.406;2022-07-06T01:15:57;6.90;;;6.40;;
10333;SDS011;5212;47.892;16.406;2022-07-06T01:18:24;7.60;;;7.00;;
10333;SDS011;5212;47.892;16.406;2022-07-06T01:21:05;7.93;;;7.13;;
10333;SDS011;5212;47.892;16.406;2022-07-06T01:23:38;7.70;;;7.00;;
10333;SDS011;5212;47.892;16.406;2022-07-06T01:26:08;7.73;;;7.03;;
10333;SDS011;5212;47.892;16.406;2022-07-06T01:28:36;8.27;;;7.57;;
10333;SDS011;5212;47.892;16.406;2022-07-06T01:31:03;7.47;;;6.87;;
10333;SDS011;5212;47.892;16.406;2022-07-06T01:33:30;6.87;;;6.37;;
10333;SDS011;5212;47.892;16.406;2022-07-06T01:35:57;6.47;;;5.87;;
10333;SDS011;5212;47.892;16.406;2022-07-06T01:38:26;7.10;;;6.40;;
10333;SDS011;5212;47.892;16.406;2022-07-06T01:40:53;5.93;;;5.43;;
10333;SDS011;5212;47.892;16.406;2022-07-06T01:43:21;7.63;;;6.20;;
10333;SDS011;5212;47.892;16.406;2022-07-06T01:45:48;7.10;;;6.47;;
10333;SDS011;5212;47.892;16.406;2022-07-06T01:48:15;6.63;;;5.60;;
10333;SDS011;5212;47.892;16.406;2022-07-06T01:50:42;6.10;;;5.60;;
10333;SDS011;5212;47.892;16.406;2022-07-06T01:53:10;6.37;;;5.77;;
10333;SDS011;5212;47.892;16.406;2022-07-06T01:55:39;6.17;;;5.67;;
10333;SDS011;5212;47.892;16.406;2022-07-06T01:58:06;6.00;;;5.50;;
10333;SDS011;5212;47.892;16.406;2022-07-06T02:00:34;6.90;;;6.30;;
10333;SDS011;5212;47.892;16.406;2022-07-06T02:03:01;7.13;;;6.43;;
10333;SDS011;5212;47.892;16.406;2022-07-06T02:05:28;6.40;;;5.90;;
10333;SDS011;5212;47.892;16.406;2022-07-06T02:07:55;8.23;;;7.53;;
10333;SDS011;5212;47.892;16.406;2022-07-06T02:10:22;7.30;;;6.70;;
10333;SDS011;5212;47.892;16.406;2022-07-06T02:12:51;6.30;;;5.70;;
10333;SDS011;5212;47.892;16.406;2022-07-06T02:15:18;7.13;;;6.53;;
10333;SDS011;5212;47.892;16.406;2022-07-06T02:17:46;6.57;;;6.07;;
10333;SDS011;5212;47.892;16.406;2022-07-06T02:20:13;6.23;;;5.73;;
10333;SDS011;5212;47.892;16.406;2022-07-06T02:22:40;6.50;;;6.00;;
10333;SDS011;5212;47.892;16.406;2022-07-06T02:25:07;6.20;;;5.70;;
10333;SDS011;5212;47.892;16.406;2022-07-06T02:27:35;6.20;;;5.70;;
10333;SDS011;5212;47.892;16.406;2022-07-06T02:30:04;7.47;;;6.87;;
10333;SDS011;5212;47.892;16.406;2022-07-06T02:32:32;7.03;;;6.43;;
10333;SDS011;5212;47.892;16.406;2022-07-06T02:34:59;7.30;;;6.70;;
10333;SDS011;5212;47.892;16.406;2022-07-06T02:37:26;7.07;;;6.47;;
10333;SDS011;5212;47.892;16.406;2022-07-06T02:39:53;7.10;;;6.17;;
10333;SDS011;5212;47.892;16.406;2022-07-06T02:42:21;7.10;;;6.50;;
10333;SDS011;5212;47.892;16.406;2022-07-06T02:44:48;8.13;;;6.53;;
10333;SDS011;5212;47.892;16.406;2022-07-06T02:47:17;7.63;;;6.97;;
10333;SDS011;5212;47.892;16.406;2022-07-06T02:49:44;6.60;;;6.10;;
10333;SDS011;5212;47.892;16.406;2022-07-06T02:52:11;7.03;;;6.43;;
10333;SDS011;5212;47.892;16.406;2022-07-06T02:54:38;6.83;;;6.13;;
10333;SDS011;5212;47.892;16.406;2022-07-06T02:57:06;6.20;;;5.70;;
10333;SDS011;5212;47.892;16.406;2022-07-06T02:59:33;7.20;;;5.60;;
10333;SDS011;5212;47.892;16.406;2022-07-06T03:02:01;5.70;;;5.20;;
10333;SDS011;5212;47.892;16.406;2022-07-06T03:04:31;6.53;;;5.93;;
10333;SDS011;5212;47.892;16.406;2022-07-06T03:06:58;6.00;;;5.50;;
10333;SDS011;5212;47.892;16.406;2022-07-06T03:09:26;5.93;;;5.43;;
10333;SDS011;5212;47.892;16.406;2022-07-06T03:11:53;6.10;;;5.60;;
10333;SDS011;5212;47.892;16.406;2022-07-06T03:14:20;6.37;;;5.77;;
10333;SDS011;5212;47.892;16.406;2022-07-06T03:16:50;7.40;;;6.70;;
10333;SDS011;5212;47.892;16.406;2022-07-06T03:19:17;7.27;;;6.57;;
10333;SDS011;5212;47.892;16.406;2022-07-06T03:21:46;6.90;;;6.20;;
10333;SDS011;5212;47.892;16.406;2022-07-06T03:24:13;6.80;;;6.20;;
10333;SDS011;5212;47.892;16.406;2022-07-06T03:26:40;6.27;;;5.70;;
10333;SDS011;5212;47.892;16.406;2022-07-06T03:29:07;6.90;;;6.20;;
10333;SDS011;5212;47.892;16.406;2022-07-06T03:31:34;5.50;;;5.10;;
10333;SDS011;5212;47.892;16.406;2022-07-06T03:34:01;5.47;;;5.07;;
10333;SDS011;5212;47.892;16.406;2022-07-06T03:36:28;5.30;;;4.80;;
10333;SDS011;5212;47.892;16.406;2022-07-06T03:38:57;5.40;;;4.90;;
10333;SDS011;5212;47.892;16.406;2022-07-06T03:41:24;5.87;;;5.43;;
10333;SDS011;5212;47.892;16.406;2022-07-06T03:43:51;6.20;;;5.70;;
10333;SDS011;5212;47.892;16.406;2022-07-06T03:46:19;6.40;;;5.90;;
10333;SDS011;5212;47.892;16.406;2022-07-06T03:48:47;6.27;;;5.77;;
10333;SDS011;5212;47.892;16.406;2022-07-06T03:51:17;6.40;;;5.80;;
10333;SDS011;5212;47.892;16.406;2022-07-06T03:53:57;7.23;;;6.63;;
10333;SDS011;5212;47.892;16.406;2022-07-06T03:56:26;7.43;;;6.80;;
10333;SDS011;5212;47.892;16.406;2022-07-06T03:59:00;9.73;;;6.80;;
10333;SDS011;5212;47.892;16.406;2022-07-06T04:01:33;6.37;;;5.87;;
10333;SDS011;5212;47.892;16.406;2022-07-06T04:04:02;6.23;;;5.67;;
10333;SDS011;5212;47.892;16.406;2022-07-06T04:06:38;5.40;;;5.00;;
10333;SDS011;5212;47.892;16.406;2022-07-06T04:09:07;5.73;;;5.23;;
10333;SDS011;5212;47.892;16.406;2022-07-06T04:11:40;10.77;;;5.80;;
10333;SDS011;5212;47.892;16.406;2022-07-06T04:14:09;6.50;;;6.00;;
10333;SDS011;5212;47.892;16.406;2022-07-06T04:16:36;6.00;;;5.50;;
10333;SDS011;5212;47.892;16.406;2022-07-06T04:19:03;5.83;;;5.33;;
10333;SDS011;5212;47.892;16.406;2022-07-06T04:21:31;5.47;;;5.07;;
10333;SDS011;5212;47.892;16.406;2022-07-06T04:23:58;5.80;;;5.30;;
10333;SDS011;5212;47.892;16.406;2022-07-06T04:26:26;5.03;;;4.63;;
10333;SDS011;5212;47.892;16.406;2022-07-06T04:28:53;5.37;;;4.97;;
10333;SDS011;5212;47.892;16.406;2022-07-06T04:31:21;5.30;;;4.90;;
10333;SDS011;5212;47.892;16.406;2022-07-06T04:33:48;5.53;;;5.03;;
10333;SDS011;5212;47.892;16.406;2022-07-06T04:36:15;5.03;;;4.43;;
10333;SDS011;5212;47.892;16.406;2022-07-06T04:38:42;4.70;;;4.33;;
10333;SDS011;5212;47.892;16.406;2022-07-06T04:41:09;4.60;;;4.20;;
10333;SDS011;5212;47.892;16.406;2022-07-06T04:43:38;4.47;;;4.17;;
10333;SDS011;5212;47.892;16.406;2022-07-06T04:46:06;4.17;;;3.87;;
10333;SDS011;5212;47.892;16.406;2022-07-06T04:48:33;4.70;;;4.20;;
10333;SDS011;5212;47.892;16.406;2022-07-06T04:51:04;5.10;;;4.70;;
10333;SDS011;5212;47.892;16.406;2022-07-06T04:53:31;5.67;;;5.13;;
10333;SDS011;5212;47.892;16.406;2022-07-06T04:55:58;5.60;;;5.10;;
10333;SDS011;5212;47.892;16.406;2022-07-06T04:58:25;5.53;;;4.97;;
10333;SDS011;5212;47.892;16.406;2022-07-06T05:00:55;4.70;;;4.30;;
10333;SDS011;5212;47.892;16.406;2022-07-06T05:03:22;5.23;;;4.83;;
10333;SDS011;5212;47.892;16.406;2022-07-06T05:05:49;7.63;;;4.73;;
10333;SDS011;5212;47.892;16.406;2022-07-06T05:08:17;4.80;;;4.40;;
10333;SDS011;5212;47.892;16.406;2022-07-06T05:10:44;4.60;;;4.30;;
10333;SDS011;5212;47.892;16.406;2022-07-06T05:13:11;4.23;;;3.93;;
10333;SDS011;5212;47.892;16.406;2022-07-06T05:15:39;4.60;;;4.20;;
10333;SDS011;5212;47.892;16.406;2022-07-06T05:18:08;4.50;;;4.10;;
10333;SDS011;5212;47.892;16.406;2022-07-06T05:20:35;4.90;;;4.23;;
10333;SDS011;5212;47.892;16.406;2022-07-06T05:23:02;5.10;;;3.67;;
10333;SDS011;5212;47.892;16.406;2022-07-06T05:25:30;4.10;;;3.80;;
10333;SDS011;5212;47.892;16.406;2022-07-06T05:27:57;4.20;;;3.80;;
10333;SDS011;5212;47.892;16.406;2022-07-06T05:30:25;4.13;;;3.77;;
10333;SDS011;5212;47.892;16.406;2022-07-06T05:32:52;3.67;;;3.37;;
10333;SDS011;5212;47.892;16.406;2022-07-06T05:35:22;4.00;;;3.70;;
10333;SDS011;5212;47.892;16.406;2022-07-06T05:37:49;4.37;;;3.50;;
10333;SDS011;5212;47.892;16.406;2022-07-06T05:40:16;3.77;;;3.47;;
10333;SDS011;5212;47.892;16.406;2022-07-06T05:42:43;3.60;;;3.30;;
10333;SDS011;5212;47.892;16.406;2022-07-06T05:45:10;3.70;;;3.40;;
10333;SDS011;5212;47.892;16.406;2022-07-06T05:47:38;3.70;;;3.40;;
10333;SDS011;5212;47.892;16.406;2022-07-06T05:50:23;3.60;;;3.30;;
10333;SDS011;5212;47.892;16.406;2022-07-06T05:52:57;3.73;;;3.43;;
10333;SDS011;5212;47.892;16.406;2022-07-06T05:55:25;3.00;;;2.80;;
10333;SDS011;5212;47.892;16.406;2022-07-06T05:57:53;3.50;;;3.20;;
10333;SDS011;5212;47.892;16.406;2022-07-06T06:00:21;3.33;;;3.10;;
10333;SDS011;5212;47.892;16.406;2022-07-06T06:02:48;3.93;;;3.30;;
10333;SDS011;5212;47.892;16.406;2022-07-06T06:05:16;3.47;;;3.00;;
10333;SDS011;5212;47.892;16.406;2022-07-06T06:07:45;3.60;;;3.30;;
10333;SDS011;5212;47.892;16.406;2022-07-06T06:10:13;4.10;;;3.30;;
10333;SDS011;5212;47.892;16.406;2022-07-06T06:12:41;3.03;;;2.80;;
10333;SDS011;5212;47.892;16.406;2022-07-06T06:15:09;3.30;;;3.00;;
10333;SDS011;5212;47.892;16.406;2022-07-06T06:17:37;4.63;;;3.37;;
10333;SDS011;5212;47.892;16.406;2022-07-06T06:20:06;2.80;;;2.50;;
10333;SDS011;5212;47.892;16.406;2022-07-06T06:22:45;4.57;;;2.90;;
10333;SDS011;5212;47.892;16.406;2022-07-06T06:25:13;3.30;;;2.70;;
10333;SDS011;5212;47.892;16.406;2022-07-06T06:27:40;2.80;;;2.60;;
10333;SDS011;5212;47.892;16.406;2022-07-06T06:30:08;2.80;;;2.60;;
10333;SDS011;5212;47.892;16.406;2022-07-06T06:32:36;3.30;;;2.97;;
10333;SDS011;5212;47.892;16.406;2022-07-06T06:35:03;2.60;;;2.40;;
10333;SDS011;5212;47.892;16.406;2022-07-06T06:37:32;3.40;;;2.60;;
10333;SDS011;5212;47.892;16.406;2022-07-06T06:40:01;3.10;;;2.70;;
10333;SDS011;5212;47.892;16.406;2022-07-06T06:42:29;2.60;;;2.40;;
10333;SDS011;5212;47.892;16.406;2022-07-06T06:44:56;2.40;;;2.23;;
10333;SDS011;5212;47.892;16.406;2022-07-06T06:47:23;2.67;;;2.47;;
10333;SDS011;5212;47.892;16.406;2022-07-06T06:49:51;2.73;;;2.53;;
10333;SDS011;5212;47.892;16.406;2022-07-06T06:52:18;2.90;;;2.60;;
10333;SDS011;5212;47.892;16.406;2022-07-06T06:54:45;2.60;;;2.40;;
10333;SDS011;5212;47.892;16.406;2022-07-06T06:57:14;2.60;;;2.40;;
10333;SDS011;5212;47.892;16.406;2022-07-06T06:59:41;2.60;;;2.40;;
10333;SDS011;5212;47.892;16.406;2022-07-06T07:02:09;2.60;;;2.40;;
10333;SDS011;5212;47.892;16.406;2022-07-06T07:04:36;2.60;;;2.40;;
10333;SDS011;5212;47.892;16.406;2022-07-06T07:07:04;2.50;;;2.30;;
10333;SDS011;5212;47.892;16.406;2022-07-06T07:09:31;3.90;;;2.60;;
10333;SDS011;5212;47.892;16.406;2022-07-06T07:11:58;2.53;;;2.30;;
10333;SDS011;5212;47.892;16.406;2022-07-06T07:14:27;2.60;;;2.40;;
10333;SDS011;5212;47.892;16.406;2022-07-06T07:16:54;2.97;;;2.70;;
10333;SDS011;5212;47.892;16.406;2022-07-06T07:19:21;2.90;;;2.70;;
10333;SDS011;5212;47.892;16.406;2022-07-06T07:21:48;3.03;;;2.73;;
10333;SDS011;5212;47.892;16.406;2022-07-06T07:24:15;2.50;;;2.30;;
10333;SDS011;5212;47.892;16.406;2022-07-06T07:26:43;6.27;;;2.97;;
10333;SDS011;5212;47.892;16.406;2022-07-06T07:29:10;3.13;;;2.20;;
10333;SDS011;5212;47.892;16.406;2022-07-06T07:31:40;2.43;;;2.23;;
10333;SDS011;5212;47.892;16.406;2022-07-06T07:34:07;3.03;;;2.53;;
10333;SDS011;5212;47.892;16.406;2022-07-06T07:36:34;2.50;;;2.30;;
10333;SDS011;5212;47.892;16.406;2022-07-06T07:39:02;2.67;;;2.40;;
10333;SDS011;5212;47.892;16.406;2022-07-06T07:41:29;2.50;;;2.30;;
10333;SDS011;5212;47.892;16.406;2022-07-06T07:43:56;1.83;;;1.73;;
10333;SDS011;5212;47.892;16.406;2022-07-06T07:46:23;2.77;;;2.53;;
10333;SDS011;5212;47.892;16.406;2022-07-06T07:48:52;2.50;;;2.30;;
10333;SDS011;5212;47.892;16.406;2022-07-06T07:51:19;3.40;;;2.20;;
10333;SDS011;5212;47.892;16.406;2022-07-06T07:53:46;3.40;;;2.60;;
10333;SDS011;5212;47.892;16.406;2022-07-06T07:56:15;3.30;;;2.03;;
10333;SDS011;5212;47.892;16.406;2022-07-06T07:58:42;2.63;;;2.43;;
10333;SDS011;5212;47.892;16.406;2022-07-06T08:01:09;3.30;;;2.37;;
10333;SDS011;5212;47.892;16.406;2022-07-06T08:03:40;2.70;;;2.23;;
10333;SDS011;5212;47.892;16.406;2022-07-06T08:06:09;2.87;;;2.40;;
10333;SDS011;5212;47.892;16.406;2022-07-06T08:08:36;3.17;;;2.40;;
10333;SDS011;5212;47.892;16.406;2022-07-06T08:11:05;2.77;;;2.23;;
10333;SDS011;5212;47.892;16.406;2022-07-06T08:13:32;2.90;;;2.40;;
10333;SDS011;5212;47.892;16.406;2022-07-06T08:16:02;2.67;;;2.47;;
10333;SDS011;5212;47.892;16.406;2022-07-06T08:18:29;2.30;;;2.10;;
10333;SDS011;5212;47.892;16.406;2022-07-06T08:20:57;2.83;;;2.43;;
10333;SDS011;5212;47.892;16.406;2022-07-06T08:23:26;2.37;;;2.17;;
10333;SDS011;5212;47.892;16.406;2022-07-06T08:25:53;2.87;;;2.40;;
10333;SDS011;5212;47.892;16.406;2022-07-06T08:28:21;2.57;;;2.37;;
10333;SDS011;5212;47.892;16.406;2022-07-06T08:30:48;3.00;;;2.23;;
10333;SDS011;5212;47.892;16.406;2022-07-06T08:33:16;2.50;;;2.30;;
10333;SDS011;5212;47.892;16.406;2022-07-06T08:35:43;2.33;;;2.13;;
10333;SDS011;5212;47.892;16.406;2022-07-06T08:38:10;2.40;;;2.20;;
10333;SDS011;5212;47.892;16.406;2022-07-06T08:40:40;3.50;;;2.00;;
10333;SDS011;5212;47.892;16.406;2022-07-06T08:43:07;2.20;;;2.00;;
10333;SDS011;5212;47.892;16.406;2022-07-06T08:45:35;2.23;;;2.10;;
10333;SDS011;5212;47.892;16.406;2022-07-06T08:48:03;2.10;;;2.00;;
10333;SDS011;5212;47.892;16.406;2022-07-06T08:50:32;2.40;;;2.20;;
10333;SDS011;5212;47.892;16.406;2022-07-06T08:53:00;2.70;;;2.50;;
10333;SDS011;5212;47.892;16.406;2022-07-06T08:55:27;3.90;;;2.23;;
10333;SDS011;5212;47.892;16.406;2022-07-06T08:57:56;3.37;;;2.20;;
10333;SDS011;5212;47.892;16.406;2022-07-06T09:00:24;1.93;;;1.83;;
10333;SDS011;5212;47.892;16.406;2022-07-06T09:02:51;2.50;;;2.30;;
10333;SDS011;5212;47.892;16.406;2022-07-06T09:05:22;3.60;;;2.20;;
10333;SDS011;5212;47.892;16.406;2022-07-06T09:07:50;3.00;;;2.20;;
10333;SDS011;5212;47.892;16.406;2022-07-06T09:10:20;3.63;;;2.00;;
10333;SDS011;5212;47.892;16.406;2022-07-06T09:12:51;2.77;;;2.20;;
10333;SDS011;5212;47.892;16.406;2022-07-06T09:15:24;2.33;;;2.13;;
10333;SDS011;5212;47.892;16.406;2022-07-06T09:17:55;2.40;;;2.20;;
10333;SDS011;5212;47.892;16.406;2022-07-06T09:20:23;2.27;;;2.07;;
10333;SDS011;5212;47.892;16.406;2022-07-06T09:22:53;2.33;;;2.13;;
10333;SDS011;5212;47.892;16.406;2022-07-06T09:25:23;3.93;;;2.30;;
10333;SDS011;5212;47.892;16.406;2022-07-06T09:27:50;3.93;;;2.30;;
10333;SDS011;5212;47.892;16.406;2022-07-06T09:30:20;2.17;;;2.03;;
10333;SDS011;5212;47.892;16.406;2022-07-06T09:32:50;2.10;;;2.00;;
10333;SDS011;5212;47.892;16.406;2022-07-06T09:35:21;2.40;;;2.20;;
10333;SDS011;5212;47.892;16.406;2022-07-06T09:37:59;2.80;;;2.37;;
10333;SDS011;5212;47.892;16.406;2022-07-06T09:40:27;2.70;;;2.50;;
10333;SDS011;5212;47.892;16.406;2022-07-06T09:43:06;2.57;;;2.30;;
10333;SDS011;5212;47.892;16.406;2022-07-06T09:45:34;2.43;;;2.20;;
10333;SDS011;5212;47.892;16.406;2022-07-06T09:48:07;2.40;;;2.20;;
10333;SDS011;5212;47.892;16.406;2022-07-06T09:50:38;2.30;;;2.00;;
10333;SDS011;5212;47.892;16.406;2022-07-06T09:53:06;2.73;;;2.30;;
10333;SDS011;5212;47.892;16.406;2022-07-06T09:55:33;2.83;;;2.00;;
10333;SDS011;5212;47.892;16.406;2022-07-06T09:58:00;2.40;;;2.20;;
10333;SDS011;5212;47.892;16.406;2022-07-06T10:00:27;2.70;;;2.50;;
10333;SDS011;5212;47.892;16.406;2022-07-06T10:02:54;2.60;;;2.40;;
10333;SDS011;5212;47.892;16.406;2022-07-06T10:05:24;3.03;;;2.33;;
10333;SDS011;5212;47.892;16.406;2022-07-06T10:07:55;2.70;;;2.47;;
10333;SDS011;5212;47.892;16.406;2022-07-06T10:10:24;2.40;;;2.20;;
10333;SDS011;5212;47.892;16.406;2022-07-06T10:12:52;2.73;;;2.53;;
10333;SDS011;5212;47.892;16.406;2022-07-06T10:15:21;3.60;;;2.20;;
10333;SDS011;5212;47.892;16.406;2022-07-06T10:17:49;4.23;;;2.70;;
10333;SDS011;5212;47.892;16.406;2022-07-06T10:20:17;2.63;;;2.43;;
10333;SDS011;5212;47.892;16.406;2022-07-06T10:22:47;3.03;;;2.60;;
10333;SDS011;5212;47.892;16.406;2022-07-06T10:25:15;2.67;;;2.30;;
10333;SDS011;5212;47.892;16.406;2022-07-06T10:27:42;2.67;;;2.47;;
10333;SDS011;5212;47.892;16.406;2022-07-06T10:30:10;2.70;;;2.50;;
10333;SDS011;5212;47.892;16.406;2022-07-06T10:32:38;2.60;;;2.40;;
10333;SDS011;5212;47.892;16.406;2022-07-06T10:35:06;3.70;;;2.47;;
10333;SDS011;5212;47.892;16.406;2022-07-06T10:37:35;3.27;;;2.77;;
10333;SDS011;5212;47.892;16.406;2022-07-06T10:40:05;2.70;;;2.50;;
10333;SDS011;5212;47.892;16.406;2022-07-06T10:43:04;13.93;;;3.37;;
10333;SDS011;5212;47.892;16.406;2022-07-06T10:45:50;2.90;;;2.70;;
10333;SDS011;5212;47.892;16.406;2022-07-06T10:48:18;3.20;;;2.90;;
10333;SDS011;5212;47.892;16.406;2022-07-06T10:50:47;3.80;;;2.60;;
10333;SDS011;5212;47.892;16.406;2022-07-06T10:53:16;4.07;;;2.80;;
10333;SDS011;5212;47.892;16.406;2022-07-06T10:55:46;3.17;;;2.50;;
10333;SDS011;5212;47.892;16.406;2022-07-06T10:58:25;2.30;;;2.10;;
10333;SDS011;5212;47.892;16.406;2022-07-06T11:01:01;3.57;;;2.37;;
10333;SDS011;5212;47.892;16.406;2022-07-06T11:03:32;2.90;;;2.63;;
10333;SDS011;5212;47.892;16.406;2022-07-06T11:06:00;3.10;;;2.80;;
10333;SDS011;5212;47.892;16.406;2022-07-06T11:08:47;3.30;;;2.73;;
10333;SDS011;5212;47.892;16.406;2022-07-06T11:11:18;2.73;;;2.50;;
10333;SDS011;5212;47.892;16.406;2022-07-06T11:13:53;3.27;;;2.83;;
10333;SDS011;5212;47.892;16.406;2022-07-06T11:16:22;5.30;;;3.47;;
10333;SDS011;5212;47.892;16.406;2022-07-06T11:18:59;6.50;;;3.63;;
10333;SDS011;5212;47.892;16.406;2022-07-06T11:21:41;4.93;;;3.67;;
10333;SDS011;5212;47.892;16.406;2022-07-06T11:24:12;4.30;;;3.90;;
10333;SDS011;5212;47.892;16.406;2022-07-06T11:26:41;3.93;;;3.30;;
10333;SDS011;5212;47.892;16.406;2022-07-06T11:29:11;3.77;;;3.47;;
10333;SDS011;5212;47.892;16.406;2022-07-06T11:31:40;3.60;;;3.30;;
10333;SDS011;5212;47.892;16.406;2022-07-06T11:34:08;3.00;;;2.80;;
10333;SDS011;5212;47.892;16.406;2022-07-06T11:36:36;3.80;;;3.10;;
10333;SDS011;5212;47.892;16.406;2022-07-06T11:39:04;3.20;;;2.90;;
10333;SDS011;5212;47.892;16.406;2022-07-06T11:41:32;3.50;;;3.20;;
10333;SDS011;5212;47.892;16.406;2022-07-06T11:44:01;3.13;;;2.93;;
10333;SDS011;5212;47.892;16.406;2022-07-06T11:46:28;4.57;;;2.60;;
10333;SDS011;5212;47.892;16.406;2022-07-06T11:48:56;2.70;;;2.50;;
10333;SDS011;5212;47.892;16.406;2022-07-06T11:51:25;2.53;;;2.33;;
10333;SDS011;5212;47.892;16.406;2022-07-06T11:53:54;4.13;;;2.80;;
10333;SDS011;5212;47.892;16.406;2022-07-06T11:56:23;3.20;;;2.50;;
10333;SDS011;5212;47.892;16.406;2022-07-06T11:58:53;2.73;;;2.53;;
10333;SDS011;5212;47.892;16.406;2022-07-06T12:01:22;2.70;;;2.50;;
10333;SDS011;5212;47.892;16.406;2022-07-06T12:03:51;2.50;;;2.30;;
10333;SDS011;5212;47.892;16.406;2022-07-06T12:06:21;3.37;;;2.50;;
10333;SDS011;5212;47.892;16.406;2022-07-06T12:08:49;2.70;;;2.50;;
10333;SDS011;5212;47.892;16.406;2022-07-06T12:11:24;3.20;;;2.60;;
10333;SDS011;5212;47.892;16.406;2022-07-06T12:13:54;3.63;;;2.47;;
10333;SDS011;5212;47.892;16.406;2022-07-06T12:16:28;2.77;;;2.57;;
10333;SDS011;5212;47.892;16.406;2022-07-06T12:18:56;2.60;;;2.40;;
10333;SDS011;5212;47.892;16.406;2022-07-06T12:21:23;3.53;;;3.23;;
10333;SDS011;5212;47.892;16.406;2022-07-06T12:23:50;3.00;;;2.70;;
10333;SDS011;5212;47.892;16.406;2022-07-06T12:26:20;2.70;;;2.50;;
10333;SDS011;5212;47.892;16.406;2022-07-06T12:28:58;2.60;;;2.40;;
10333;SDS011;5212;47.892;16.406;2022-07-06T12:31:34;2.93;;;2.70;;
10333;SDS011;5212;47.892;16.406;2022-07-06T12:34:03;2.57;;;2.30;;
10333;SDS011;5212;47.892;16.406;2022-07-06T12:36:31;2.37;;;2.00;;
10333;SDS011;5212;47.892;16.406;2022-07-06T12:38:58;2.37;;;2.17;;
10333;SDS011;5212;47.892;16.406;2022-07-06T12:41:26;2.23;;;2.03;;
10333;SDS011;5212;47.892;16.406;2022-07-06T12:44:01;2.33;;;2.10;;
10333;SDS011;5212;47.892;16.406;2022-07-06T12:46:31;2.40;;;2.20;;
10333;SDS011;5212;47.892;16.406;2022-07-06T12:49:02;2.50;;;2.30;;
10333;SDS011;5212;47.892;16.406;2022-07-06T12:54:23;2.30;;;2.10;;
10333;SDS011;5212;47.892;16.406;2022-07-06T12:57:04;2.20;;;2.00;;
10333;SDS011;5212;47.892;16.406;2022-07-06T12:59:38;2.90;;;2.60;;
10333;SDS011;5212;47.892;16.406;2022-07-06T13:02:09;3.13;;;2.50;;
10333;SDS011;5212;47.892;16.406;2022-07-06T13:04:37;2.90;;;2.70;;
10333;SDS011;5212;47.892;16.406;2022-07-06T13:07:07;4.03;;;2.43;;
10333;SDS011;5212;47.892;16.406;2022-07-06T13:09:44;2.80;;;2.60;;
10333;SDS011;5212;47.892;16.406;2022-07-06T13:12:11;3.50;;;2.60;;
10333;SDS011;5212;47.892;16.406;2022-07-06T13:14:38;3.13;;;2.63;;
10333;SDS011;5212;47.892;16.406;2022-07-06T13:17:05;2.73;;;2.53;;
10333;SDS011;5212;47.892;16.406;2022-07-06T13:19:34;2.87;;;2.67;;
10333;SDS011;5212;47.892;16.406;2022-07-06T13:22:02;3.40;;;2.60;;
10333;SDS011;5212;47.892;16.406;2022-07-06T13:24:29;2.73;;;2.53;;
10333;SDS011;5212;47.892;16.406;2022-07-06T13:26:56;2.63;;;2.37;;
10333;SDS011;5212;47.892;16.406;2022-07-06T13:29:24;2.93;;;2.53;;
10333;SDS011;5212;47.892;16.406;2022-07-06T13:31:51;2.90;;;2.70;;
10333;SDS011;5212;47.892;16.406;2022-07-06T13:34:18;3.10;;;2.70;;
10333;SDS011;5212;47.892;16.406;2022-07-06T13:36:47;3.10;;;2.50;;
10333;SDS011;5212;47.892;16.406;2022-07-06T13:39:14;2.43;;;2.23;;
10333;SDS011;5212;47.892;16.406;2022-07-06T13:41:42;2.47;;;2.27;;
10333;SDS011;5212;47.892;16.406;2022-07-06T13:44:10;3.07;;;2.63;;
10333;SDS011;5212;47.892;16.406;2022-07-06T13:46:38;2.97;;;2.60;;
10333;SDS011;5212;47.892;16.406;2022-07-06T13:49:06;3.43;;;2.43;;
10333;SDS011;5212;47.892;16.406;2022-07-06T13:51:33;2.77;;;2.57;;
10333;SDS011;5212;47.892;16.406;2022-07-06T13:54:02;2.67;;;2.47;;
10333;SDS011;5212;47.892;16.406;2022-07-06T13:56:29;3.27;;;2.60;;
10333;SDS011;5212;47.892;16.406;2022-07-06T13:58:57;2.30;;;2.10;;
10333;SDS011;5212;47.892;16.406;2022-07-06T14:01:25;2.53;;;1.90;;
10333;SDS011;5212;47.892;16.406;2022-07-06T14:03:52;2.17;;;1.97;;
10333;SDS011;5212;47.892;16.406;2022-07-06T14:06:19;2.00;;;1.80;;
10333;SDS011;5212;47.892;16.406;2022-07-06T14:08:47;2.63;;;1.67;;
10333;SDS011;5212;47.892;16.406;2022-07-06T14:11:18;2.00;;;1.80;;
10333;SDS011;5212;47.892;16.406;2022-07-06T14:13:47;1.70;;;1.60;;
10333;SDS011;5212;47.892;16.406;2022-07-06T14:16:15;2.67;;;1.80;;
10333;SDS011;5212;47.892;16.406;2022-07-06T14:18:42;1.97;;;1.67;;
10333;SDS011;5212;47.892;16.406;2022-07-06T14:21:09;1.90;;;1.80;;
10333;SDS011;5212;47.892;16.406;2022-07-06T14:23:36;1.70;;;1.60;;
10333;SDS011;5212;47.892;16.406;2022-07-06T14:26:03;1.80;;;1.70;;
10333;SDS011;5212;47.892;16.406;2022-07-06T14:28:33;2.13;;;1.80;;
10333;SDS011;5212;47.892;16.406;2022-07-06T14:31:00;2.20;;;1.77;;
10333;SDS011;5212;47.892;16.406;2022-07-06T14:33:28;2.00;;;1.80;;
10333;SDS011;5212;47.892;16.406;2022-07-06T14:35:55;2.10;;;1.70;;
10333;SDS011;5212;47.892;16.406;2022-07-06T14:38:22;2.07;;;1.80;;
10333;SDS011;5212;47.892;16.406;2022-07-06T14:40:49;2.03;;;1.80;;
10333;SDS011;5212;47.892;16.406;2022-07-06T14:43:16;2.30;;;2.10;;
10333;SDS011;5212;47.892;16.406;2022-07-06T14:45:45;2.90;;;2.10;;
10333;SDS011;5212;47.892;16.406;2022-07-06T14:48:12;2.00;;;1.90;;
10333;SDS011;5212;47.892;16.406;2022-07-06T14:50:40;2.37;;;2.10;;
10333;SDS011;5212;47.892;16.406;2022-07-06T14:53:07;2.30;;;2.10;;
10333;SDS011;5212;47.892;16.406;2022-07-06T14:55:34;2.27;;;2.00;;
10333;SDS011;5212;47.892;16.406;2022-07-06T14:58:01;2.50;;;2.30;;
10333;SDS011;5212;47.892;16.406;2022-07-06T15:00:29;3.30;;;3.00;;